createdAt,value
2017-11-30T00:01:17.387Z,62.10
2017-11-30T00:03:46.281Z,60.30
2017-11-30T00:06:14.522Z,60.30
2017-11-30T00:08:44.857Z,61.00
2017-11-30T00:11:14.175Z,60.40
2017-11-30T00:13:43.697Z,60.10
2017-11-30T00:16:12.809Z,60.10
2017-11-30T00:18:41.824Z,60.80
2017-11-30T00:21:10.555Z,59.70
2017-11-30T00:23:39.497Z,59.50
2017-11-30T00:26:08.877Z,59.80
2017-11-30T00:28:38.257Z,61.70
2017-11-30T00:31:07.054Z,61.70
2017-11-30T00:33:35.802Z,63.30
2017-11-30T00:36:04.883Z,60.60
2017-11-30T00:41:08.817Z,61.30
2017-11-30T00:43:37.707Z,62.40
2017-11-30T00:46:06.503Z,62.40
2017-11-30T00:48:35.275Z,63.70
2017-11-30T00:51:04.337Z,63.70
2017-11-30T00:53:32.989Z,63.70
2017-11-30T00:56:02.041Z,65.10
2017-11-30T00:58:30.968Z,65.10
2017-11-30T01:00:59.741Z,66.20
2017-11-30T01:03:29.050Z,64.90
2017-11-30T01:05:57.825Z,64.90
2017-11-30T01:08:26.633Z,65.50
2017-11-30T01:10:55.452Z,64.40
2017-11-30T01:13:24.944Z,65.80
2017-11-30T01:15:54.183Z,65.10
2017-11-30T01:18:23.209Z,65.10
2017-11-30T01:20:53.227Z,67.30
2017-11-30T01:23:22.124Z,67.30
2017-11-30T01:25:50.829Z,67.40
2017-11-30T01:28:20.165Z,68.50
2017-11-30T01:30:49.262Z,69.80
2017-11-30T01:33:18.825Z,70.30
2017-11-30T01:35:47.506Z,70.30
2017-11-30T01:38:16.834Z,70.10
2017-11-30T01:40:45.886Z,70.10
2017-11-30T01:43:14.771Z,68.30
2017-11-30T01:45:43.621Z,69.80
2017-11-30T01:48:12.830Z,67.80
2017-11-30T01:50:42.055Z,65.80
2017-11-30T01:53:11.320Z,65.70
2017-11-30T01:55:40.384Z,62.20
2017-11-30T01:58:09.466Z,62.20
2017-11-30T02:00:38.795Z,61.90
2017-11-30T02:03:09.057Z,59.20
2017-11-30T02:05:37.865Z,58.90
2017-11-30T02:08:06.780Z,61.50
2017-11-30T02:10:36.225Z,64.40
2017-11-30T02:13:05.050Z,63.70
2017-11-30T02:15:34.372Z,64.90
2017-11-30T02:18:03.172Z,64.90
2017-11-30T02:20:32.275Z,66.00
2017-11-30T02:23:02.053Z,65.80
2017-11-30T02:25:31.450Z,65.80
2017-11-30T02:28:00.657Z,66.70
2017-11-30T02:30:29.616Z,68.00
2017-11-30T02:32:58.698Z,68.50
2017-11-30T02:35:27.927Z,67.60
2017-11-30T02:37:57.405Z,67.60
2017-11-30T02:40:26.279Z,67.40
2017-11-30T02:42:55.550Z,66.40
2017-11-30T02:45:24.381Z,66.70
2017-11-30T02:47:53.142Z,66.20
2017-11-30T02:50:22.317Z,66.70
2017-11-30T02:52:51.673Z,67.60
2017-11-30T02:55:20.718Z,67.60
2017-11-30T02:57:49.585Z,63.10
2017-11-30T03:00:18.375Z,60.60
2017-11-30T03:02:47.683Z,60.40
2017-11-30T03:05:16.691Z,62.20
2017-11-30T03:07:45.778Z,63.70
2017-11-30T03:10:15.270Z,62.40
2017-11-30T03:12:44.143Z,58.80
2017-11-30T03:15:14.181Z,58.80
2017-11-30T03:17:44.213Z,59.40
2017-11-30T03:20:13.160Z,59.40
2017-11-30T03:22:42.181Z,56.30
2017-11-30T03:25:11.282Z,56.30
2017-11-30T03:27:40.287Z,58.50
2017-11-30T03:30:09.114Z,57.30
2017-11-30T03:32:38.027Z,57.30
2017-11-30T03:35:06.802Z,57.00
2017-11-30T03:37:36.361Z,57.60
2017-11-30T03:40:05.306Z,57.60
2017-11-30T03:42:34.025Z,60.00
2017-11-30T03:45:03.419Z,63.70
2017-11-30T03:47:32.158Z,63.70
2017-11-30T03:50:01.738Z,63.10
2017-11-30T03:52:30.932Z,64.60
2017-11-30T03:55:00.321Z,64.60
2017-11-30T03:57:30.174Z,64.60
2017-11-30T03:59:59.605Z,59.50
2017-11-30T04:02:28.441Z,59.50
2017-11-30T04:04:57.668Z,58.80
2017-11-30T04:07:26.785Z,58.50
2017-11-30T04:09:55.896Z,58.50
2017-11-30T04:12:25.151Z,56.90
2017-11-30T04:14:54.332Z,56.00
2017-11-30T04:17:23.037Z,56.10
2017-11-30T04:19:51.923Z,57.20
2017-11-30T04:22:20.819Z,57.20
2017-11-30T04:24:50.175Z,54.60
2017-11-30T04:27:18.757Z,54.60
2017-11-30T04:29:47.791Z,58.20
2017-11-30T04:32:16.581Z,58.20
2017-11-30T04:34:45.263Z,60.00
2017-11-30T04:37:14.474Z,61.20
2017-11-30T04:39:43.957Z,63.30
2017-11-30T04:42:12.807Z,63.30
2017-11-30T04:44:41.627Z,62.40
2017-11-30T04:47:10.173Z,60.10
2017-11-30T04:49:39.053Z,58.20
2017-11-30T04:52:07.743Z,57.60
2017-11-30T04:54:37.325Z,57.30
2017-11-30T04:57:06.233Z,57.30
2017-11-30T04:59:35.805Z,59.80
2017-11-30T05:02:06.181Z,60.40
2017-11-30T05:04:35.412Z,60.40
2017-11-30T05:07:03.813Z,58.50
2017-11-30T05:09:32.473Z,58.00
2017-11-30T05:12:00.774Z,58.00
2017-11-30T05:14:29.474Z,56.60
2017-11-30T05:16:58.427Z,54.50
2017-11-30T05:19:27.194Z,53.50
2017-11-30T05:21:55.682Z,53.50
2017-11-30T05:24:23.946Z,54.30
2017-11-30T05:26:52.542Z,56.60
2017-11-30T05:29:21.433Z,58.90
2017-11-30T05:31:49.701Z,59.80
2017-11-30T05:34:17.950Z,60.10
2017-11-30T05:36:46.221Z,62.20
2017-11-30T05:39:15.051Z,64.60
2017-11-30T05:41:43.331Z,66.60
2017-11-30T05:44:11.578Z,66.40
2017-11-30T05:46:39.823Z,64.80
2017-11-30T05:49:08.087Z,63.30
2017-11-30T05:51:36.643Z,63.50
2017-11-30T05:54:06.527Z,61.30
2017-11-30T05:56:35.249Z,62.60
2017-11-30T05:59:03.494Z,63.30
2017-11-30T06:01:31.751Z,62.60
2017-11-30T06:04:00.029Z,62.10
2017-11-30T06:06:28.261Z,60.00
2017-11-30T06:08:56.923Z,57.30
2017-11-30T06:11:25.194Z,57.30
2017-11-30T06:13:53.444Z,56.60
2017-11-30T06:16:21.718Z,57.20
2017-11-30T06:18:50.011Z,57.90
2017-11-30T06:21:18.247Z,58.30
2017-11-30T06:23:46.504Z,57.70
2017-11-30T06:26:15.153Z,59.50
2017-11-30T06:28:43.425Z,59.50
2017-11-30T06:31:11.924Z,60.10
2017-11-30T06:33:40.172Z,59.20
2017-11-30T06:36:08.425Z,57.60
2017-11-30T06:38:36.767Z,60.00
2017-11-30T06:41:05.033Z,63.10
2017-11-30T06:43:33.286Z,63.10
2017-11-30T06:46:01.648Z,61.00
2017-11-30T06:48:29.902Z,58.00
2017-11-30T06:50:58.184Z,58.60
2017-11-30T06:53:26.443Z,60.30
2017-11-30T06:55:54.696Z,61.20
2017-11-30T06:58:23.390Z,61.00
2017-11-30T07:00:52.028Z,61.30
2017-11-30T07:03:20.633Z,61.30
2017-11-30T07:05:48.924Z,60.30
2017-11-30T07:08:17.247Z,61.20
2017-11-30T07:10:45.512Z,61.70
2017-11-30T07:13:13.843Z,61.70
2017-11-30T07:15:42.089Z,62.40
2017-11-30T07:18:10.403Z,63.90
2017-11-30T07:20:38.681Z,63.10
2017-11-30T07:23:06.944Z,64.20
2017-11-30T07:25:35.227Z,63.90
2017-11-30T07:28:03.533Z,62.40
2017-11-30T07:30:32.174Z,59.20
2017-11-30T07:33:00.444Z,59.20
2017-11-30T07:35:29.439Z,59.20
2017-11-30T07:37:57.936Z,58.20
2017-11-30T07:40:26.213Z,56.60
2017-11-30T07:42:54.455Z,56.00
2017-11-30T07:45:22.704Z,56.10
2017-11-30T07:47:51.106Z,55.40
2017-11-30T07:50:19.349Z,56.00
2017-11-30T07:52:47.895Z,57.40
2017-11-30T07:55:16.479Z,58.00
2017-11-30T07:57:44.734Z,57.00
2017-11-30T08:00:13.021Z,57.30
2017-11-30T08:02:41.292Z,56.10
2017-11-30T08:05:09.528Z,56.10
2017-11-30T08:07:37.798Z,56.00
2017-11-30T08:10:06.065Z,55.10
2017-11-30T08:12:34.707Z,54.10
2017-11-30T08:15:03.298Z,54.10
2017-11-30T08:17:31.562Z,56.00
2017-11-30T08:20:00.242Z,58.90
2017-11-30T08:22:29.105Z,59.70
2017-11-30T08:24:58.968Z,63.00
2017-11-30T08:27:31.437Z,66.70
2017-11-30T08:30:00.695Z,57.70
2017-11-30T08:32:30.953Z,55.50
2017-11-30T08:34:59.629Z,63.70
2017-11-30T08:37:29.258Z,53.80
2017-11-30T08:39:59.382Z,45.50
2017-11-30T08:42:27.686Z,45.60
2017-11-30T08:44:55.945Z,50.40
2017-11-30T08:47:24.614Z,45.00
2017-11-30T08:49:52.883Z,44.90
2017-11-30T08:52:21.369Z,41.30
2017-11-30T08:54:49.743Z,46.10
2017-11-30T08:57:18.014Z,54.30
2017-11-30T08:59:46.245Z,43.30
2017-11-30T09:02:14.504Z,51.80
2017-11-30T09:04:43.157Z,37.10
2017-11-30T09:07:11.434Z,37.10
2017-11-30T09:09:39.676Z,37.60
2017-11-30T09:12:07.933Z,51.40
2017-11-30T09:14:36.226Z,50.50
2017-11-30T09:17:04.492Z,44.30
2017-11-30T09:19:32.753Z,37.90
2017-11-30T09:22:01.037Z,44.40
2017-11-30T09:24:29.320Z,34.40
2017-11-30T09:26:57.646Z,31.30
2017-11-30T09:29:25.926Z,40.30
2017-11-30T09:31:54.171Z,33.80
2017-11-30T09:34:22.463Z,32.30
2017-11-30T09:36:50.753Z,32.60
2017-11-30T09:39:18.999Z,48.10
2017-11-30T09:41:47.349Z,33.70
2017-11-30T09:44:15.625Z,45.50
2017-11-30T09:46:43.892Z,31.60
2017-11-30T09:49:12.145Z,36.90
2017-11-30T09:51:40.714Z,31.30
2017-11-30T09:54:08.990Z,36.90
2017-11-30T09:56:37.250Z,35.00
2017-11-30T09:59:05.530Z,38.80
2017-11-30T10:01:34.478Z,35.90
2017-11-30T10:04:02.773Z,40.30
2017-11-30T10:06:31.041Z,35.70
2017-11-30T10:08:59.327Z,39.60
2017-11-30T10:11:27.894Z,35.40
2017-11-30T10:13:56.126Z,38.50
2017-11-30T10:16:24.367Z,41.80
2017-11-30T10:18:52.630Z,41.50
2017-11-30T10:21:21.449Z,47.80
2017-11-30T10:23:49.740Z,35.90
2017-11-30T10:26:18.019Z,32.30
2017-11-30T10:28:46.329Z,45.90
2017-11-30T10:31:14.866Z,44.60
2017-11-30T10:33:43.169Z,29.90
2017-11-30T10:36:11.807Z,33.20
2017-11-30T10:38:40.079Z,33.20
2017-11-30T10:41:08.689Z,34.80
2017-11-30T10:43:36.935Z,43.10
2017-11-30T10:46:05.184Z,44.70
2017-11-30T10:48:33.537Z,37.90
2017-11-30T10:51:02.205Z,28.90
2017-11-30T10:53:30.515Z,28.90
2017-11-30T10:55:59.157Z,28.80
2017-11-30T10:58:27.754Z,28.80
2017-11-30T11:00:56.074Z,30.10
2017-11-30T11:03:24.387Z,29.80
2017-11-30T11:05:52.646Z,35.90
2017-11-30T11:08:20.979Z,32.90
2017-11-30T11:10:49.702Z,31.70
2017-11-30T11:13:17.985Z,35.10
2017-11-30T11:15:46.342Z,38.10
2017-11-30T11:18:14.690Z,40.70
2017-11-30T11:20:42.978Z,50.10
2017-11-30T11:23:11.250Z,39.60
2017-11-30T11:25:39.923Z,50.40
2017-11-30T11:28:08.718Z,46.70
2017-11-30T11:30:36.975Z,46.70
2017-11-30T11:33:05.239Z,52.90
2017-11-30T11:35:33.544Z,48.60
2017-11-30T11:38:01.802Z,41.90
2017-11-30T11:40:30.499Z,41.20
2017-11-30T11:42:59.073Z,41.20
2017-11-30T11:45:27.316Z,33.40
2017-11-30T11:47:56.447Z,45.00
2017-11-30T11:50:24.974Z,42.70
2017-11-30T11:52:53.281Z,34.20
2017-11-30T11:55:21.699Z,38.40
2017-11-30T11:57:50.189Z,41.60
2017-11-30T12:00:18.484Z,34.50
2017-11-30T12:02:47.749Z,33.80
2017-11-30T12:05:16.046Z,36.80
2017-11-30T12:07:44.313Z,40.60
2017-11-30T12:10:12.632Z,45.30
2017-11-30T12:12:40.934Z,38.50
2017-11-30T12:15:09.568Z,44.60
2017-11-30T12:17:37.852Z,41.20
2017-11-30T12:20:06.150Z,45.60
2017-11-30T12:22:35.070Z,36.50
2017-11-30T12:25:03.942Z,37.60
2017-11-30T12:27:32.312Z,42.20
2017-11-30T12:30:00.788Z,48.40
2017-11-30T12:32:29.297Z,46.40
2017-11-30T12:34:57.549Z,36.20
2017-11-30T12:37:26.372Z,37.90
2017-11-30T12:39:54.806Z,45.20
2017-11-30T12:42:23.087Z,40.30
2017-11-30T12:44:51.359Z,40.30
2017-11-30T12:47:19.723Z,33.40
2017-11-30T12:49:48.012Z,34.10
2017-11-30T12:52:16.269Z,37.80
2017-11-30T12:54:44.939Z,39.90
2017-11-30T12:57:13.574Z,39.40
2017-11-30T12:59:42.782Z,39.40
2017-11-30T13:02:12.013Z,35.90
2017-11-30T13:04:40.815Z,33.20
2017-11-30T13:07:09.808Z,32.30
2017-11-30T13:09:39.141Z,35.60
2017-11-30T13:12:08.070Z,35.60
2017-11-30T13:14:36.726Z,35.30
2017-11-30T13:17:05.892Z,33.10
2017-11-30T13:19:34.618Z,36.90
2017-11-30T13:22:04.242Z,35.30
2017-11-30T13:24:33.085Z,35.30
2017-11-30T13:27:01.816Z,34.20
2017-11-30T13:29:31.074Z,39.30
2017-11-30T13:31:59.553Z,39.30
2017-11-30T13:34:27.825Z,35.60
2017-11-30T13:36:56.091Z,37.20
2017-11-30T13:39:24.332Z,35.90
2017-11-30T13:41:52.600Z,37.90
2017-11-30T13:44:21.209Z,36.50
2017-11-30T13:46:50.068Z,38.70
2017-11-30T13:49:18.606Z,36.30
2017-11-30T13:51:47.707Z,36.90
2017-11-30T13:54:16.258Z,33.10
2017-11-30T13:56:45.379Z,32.60
2017-11-30T13:59:14.340Z,35.60
2017-11-30T14:01:43.786Z,32.20
2017-11-30T14:04:12.908Z,32.20
2017-11-30T14:06:41.765Z,32.90
2017-11-30T14:09:10.851Z,36.00
2017-11-30T14:11:40.061Z,34.20
2017-11-30T14:14:09.268Z,31.70
2017-11-30T14:16:38.228Z,29.80
2017-11-30T14:19:07.235Z,31.90
2017-11-30T14:21:36.176Z,32.60
2017-11-30T14:24:06.407Z,43.40
2017-11-30T14:26:35.406Z,43.30
2017-11-30T14:29:04.710Z,42.70
2017-11-30T14:31:33.598Z,42.50
2017-11-30T14:34:03.360Z,37.40
2017-11-30T14:36:32.304Z,37.90
2017-11-30T14:39:00.700Z,39.70
2017-11-30T14:41:29.439Z,45.50
2017-11-30T14:43:57.956Z,41.00
2017-11-30T14:46:26.384Z,43.00
2017-11-30T14:48:55.407Z,54.60
2017-11-30T14:51:23.653Z,54.60
2017-11-30T14:53:51.914Z,46.10
2017-11-30T14:56:20.204Z,52.90
2017-11-30T14:58:48.472Z,50.40
2017-11-30T15:01:16.729Z,48.70
2017-11-30T15:03:45.010Z,48.60
2017-11-30T15:06:13.270Z,43.00
2017-11-30T15:08:41.833Z,41.90
2017-11-30T15:11:10.116Z,44.30
2017-11-30T15:13:38.796Z,43.00
2017-11-30T15:16:07.468Z,42.70
2017-11-30T15:18:35.774Z,42.70
2017-11-30T15:21:04.783Z,39.90
2017-11-30T15:23:33.033Z,39.90
2017-11-30T15:26:01.680Z,36.90
2017-11-30T15:28:30.302Z,37.10
2017-11-30T15:30:58.541Z,41.20
2017-11-30T15:33:26.813Z,39.90
2017-11-30T15:35:56.340Z,41.80
2017-11-30T15:38:24.601Z,41.80
2017-11-30T15:40:52.889Z,47.00
2017-11-30T15:43:21.140Z,43.30
2017-11-30T15:45:49.419Z,47.10
2017-11-30T15:48:17.812Z,45.50
2017-11-30T15:50:46.060Z,48.90
2017-11-30T15:53:14.315Z,51.50
2017-11-30T15:55:42.593Z,54.90
2017-11-30T15:58:10.869Z,61.50
2017-11-30T16:00:39.105Z,55.70
2017-11-30T16:03:07.376Z,53.20
2017-11-30T16:05:35.608Z,58.20
2017-11-30T16:08:03.893Z,53.30
2017-11-30T16:10:32.137Z,53.20
2017-11-30T16:13:00.784Z,57.30
2017-11-30T16:15:29.046Z,57.30
2017-11-30T16:17:57.321Z,54.20
2017-11-30T16:20:25.588Z,53.80
2017-11-30T16:22:53.853Z,52.30
2017-11-30T16:25:22.152Z,54.20
2017-11-30T16:27:50.433Z,50.50
2017-11-30T16:30:18.684Z,50.70
2017-11-30T16:32:46.957Z,48.30
2017-11-30T16:35:15.226Z,48.10
2017-11-30T16:37:43.640Z,48.90
2017-11-30T16:40:12.086Z,48.30
2017-11-30T16:42:40.341Z,47.10
2017-11-30T16:45:08.992Z,44.40
2017-11-30T16:47:37.290Z,44.40
2017-11-30T16:50:05.989Z,45.50
2017-11-30T16:52:34.259Z,45.50
2017-11-30T16:55:02.908Z,40.90
2017-11-30T16:57:31.151Z,40.90
2017-11-30T16:59:59.523Z,42.10
2017-11-30T17:02:27.783Z,44.90
2017-11-30T17:04:56.426Z,51.50
2017-11-30T17:07:24.704Z,51.50
2017-11-30T17:09:52.943Z,53.80
2017-11-30T17:12:21.222Z,55.70
2017-11-30T17:14:49.495Z,57.30
2017-11-30T17:17:17.791Z,58.90
2017-11-30T17:19:46.064Z,60.10
2017-11-30T17:22:14.366Z,60.40
2017-11-30T17:24:42.616Z,64.40
2017-11-30T17:27:10.894Z,58.90
2017-11-30T17:29:39.150Z,55.20
2017-11-30T17:32:07.396Z,56.70
2017-11-30T17:34:36.072Z,62.20
2017-11-30T17:37:04.732Z,61.30
2017-11-30T17:39:32.975Z,61.30
2017-11-30T17:42:01.321Z,53.80
2017-11-30T17:44:29.954Z,51.50
2017-11-30T17:46:58.221Z,51.70
2017-11-30T17:49:26.482Z,55.10
2017-11-30T17:51:54.726Z,54.20
2017-11-30T17:54:23.870Z,49.80
2017-11-30T17:56:52.126Z,48.00
2017-11-30T17:59:20.699Z,49.50
2017-11-30T18:01:48.984Z,49.00
2017-11-30T18:04:18.238Z,46.70
2017-11-30T18:06:46.482Z,45.80
2017-11-30T18:09:14.753Z,47.30
2017-11-30T18:11:42.993Z,43.70
2017-11-30T18:14:11.240Z,43.70
2017-11-30T18:16:39.538Z,46.70
2017-11-30T18:19:07.837Z,45.30
2017-11-30T18:21:36.471Z,48.40
2017-11-30T18:24:04.853Z,48.40
2017-11-30T18:26:33.093Z,48.40
2017-11-30T18:29:01.642Z,46.80
2017-11-30T18:31:30.647Z,43.30
2017-11-30T18:33:58.904Z,43.40
2017-11-30T18:36:27.637Z,45.00
2017-11-30T18:38:55.880Z,45.00
2017-11-30T18:41:24.125Z,47.40
2017-11-30T18:43:52.441Z,43.70
2017-11-30T18:46:20.684Z,47.70
2017-11-30T18:48:49.337Z,44.10
2017-11-30T18:51:17.576Z,44.10
2017-11-30T18:53:45.831Z,44.70
2017-11-30T18:56:14.478Z,49.00
2017-11-30T18:58:42.729Z,49.00
2017-11-30T19:01:10.987Z,51.10
2017-11-30T19:03:39.280Z,52.10
2017-11-30T19:06:07.520Z,54.90
2017-11-30T19:08:36.167Z,54.30
2017-11-30T19:11:04.447Z,54.30
2017-11-30T19:13:32.714Z,50.50
2017-11-30T19:16:01.024Z,52.30
2017-11-30T19:18:29.779Z,49.50
2017-11-30T19:20:58.986Z,49.50
2017-11-30T19:23:27.256Z,50.50
2017-11-30T19:25:55.555Z,51.40
2017-11-30T19:28:23.785Z,48.90
2017-11-30T19:30:52.090Z,53.50
2017-11-30T19:33:20.576Z,49.50
2017-11-30T19:35:48.825Z,54.80
2017-11-30T19:38:17.214Z,53.80
2017-11-30T19:40:45.443Z,48.10
2017-11-30T19:43:13.720Z,48.10
2017-11-30T19:45:42.024Z,50.20
2017-11-30T19:48:10.272Z,52.40
2017-11-30T19:50:38.543Z,52.70
2017-11-30T19:53:07.279Z,56.10
2017-11-30T19:55:35.519Z,56.10
2017-11-30T19:58:03.764Z,58.20
2017-11-30T20:00:32.452Z,64.40
2017-11-30T20:03:01.105Z,59.50
2017-11-30T20:05:29.368Z,59.50
2017-11-30T20:07:57.676Z,59.80
2017-11-30T20:10:26.397Z,60.40
2017-11-30T20:15:32.584Z,64.60
2017-11-30T20:18:03.449Z,61.90
2017-11-30T20:20:32.831Z,60.60
2017-11-30T20:23:01.096Z,64.00
2017-11-30T20:25:29.341Z,62.80
2017-11-30T20:27:57.716Z,56.70
2017-11-30T20:30:25.972Z,56.70
2017-11-30T20:32:54.346Z,56.60
2017-11-30T20:35:22.631Z,54.90
2017-11-30T20:37:50.887Z,55.40
2017-11-30T20:40:19.145Z,56.60
2017-11-30T20:42:47.415Z,54.80
2017-11-30T20:45:15.691Z,53.20
2017-11-30T20:47:43.911Z,52.30
2017-11-30T20:50:12.181Z,52.70
2017-11-30T20:52:40.986Z,52.90
2017-11-30T20:55:09.339Z,54.60
2017-11-30T20:57:37.614Z,57.00
2017-11-30T21:00:06.095Z,58.50
2017-11-30T21:02:34.351Z,59.20
2017-11-30T21:05:02.634Z,58.00
2017-11-30T21:07:30.959Z,59.20
2017-11-30T21:09:59.260Z,60.40
2017-11-30T21:12:27.631Z,62.40
2017-11-30T21:14:59.742Z,63.70
2017-11-30T21:17:31.130Z,65.10
2017-11-30T21:20:05.054Z,66.70
2017-11-30T21:22:35.052Z,66.70
2017-11-30T21:25:06.955Z,65.50
2017-11-30T21:27:36.257Z,65.10
2017-11-30T21:32:43.267Z,65.10
2017-11-30T21:35:13.746Z,66.60
2017-11-30T21:37:42.755Z,66.40
2017-11-30T21:40:11.140Z,66.00
2017-11-30T21:42:40.237Z,64.60
2017-11-30T21:45:09.046Z,60.60
2017-11-30T21:47:39.088Z,60.40
2017-11-30T21:50:08.374Z,61.30
2017-11-30T21:52:39.302Z,62.60
2017-11-30T21:55:08.923Z,63.30
2017-11-30T21:57:40.566Z,63.90
2017-11-30T22:00:10.953Z,64.80
2017-11-30T22:02:39.380Z,65.70
2017-11-30T22:05:07.956Z,66.00
2017-11-30T22:07:37.551Z,65.70
2017-11-30T22:10:10.484Z,66.40
2017-11-30T22:12:43.368Z,66.60
2017-11-30T22:15:12.173Z,66.60
2017-11-30T22:17:46.558Z,63.50
2017-11-30T22:20:17.545Z,61.90
2017-11-30T22:22:48.125Z,63.90
2017-11-30T22:25:16.400Z,63.00
2017-11-30T22:27:44.640Z,59.70
2017-11-30T22:30:13.264Z,56.40
2017-11-30T22:32:41.536Z,56.00
2017-11-30T22:35:09.788Z,55.40
2017-11-30T22:37:38.109Z,55.20
2017-11-30T22:40:06.374Z,53.80
2017-11-30T22:42:34.633Z,53.80
2017-11-30T22:45:03.091Z,51.70
2017-11-30T22:47:31.327Z,50.40
2017-11-30T22:49:59.969Z,51.20
2017-11-30T22:52:28.276Z,51.20
2017-11-30T22:54:56.532Z,51.10
2017-11-30T22:57:24.819Z,52.00
2017-11-30T22:59:53.072Z,52.10
2017-11-30T23:02:21.987Z,53.90
2017-11-30T23:04:50.356Z,54.90
2017-11-30T23:07:18.607Z,54.90
2017-11-30T23:09:46.865Z,55.50
2017-11-30T23:12:15.187Z,61.30
2017-11-30T23:14:43.439Z,55.80
2017-11-30T23:17:11.743Z,54.30
2017-11-30T23:19:40.134Z,55.50
2017-11-30T23:22:08.543Z,57.70
2017-11-30T23:24:36.864Z,57.90
2017-11-30T23:27:05.809Z,59.10
2017-11-30T23:29:36.273Z,59.70
2017-11-30T23:32:04.806Z,65.70
2017-11-30T23:34:33.094Z,59.20
2017-11-30T23:37:01.402Z,57.30
2017-11-30T23:39:29.836Z,58.30
2017-11-30T23:41:58.167Z,60.10
2017-11-30T23:44:26.426Z,58.50
2017-11-30T23:46:54.765Z,58.00
2017-11-30T23:49:23.412Z,59.20
2017-11-30T23:51:51.655Z,59.20
2017-11-30T23:54:20.024Z,60.40
2017-11-30T23:56:48.229Z,64.00
2017-11-30T23:59:17.126Z,60.80
